Time;durP1;ratioP1;P1;durP2;ratioP2;P2;SDS_P1;SDS_P2;PMS_P1;PMS_P2;Temp;Humidity;BMP_temperature;BMP_pressure;BME280_temperature;BME280_humidity;BME280_pressure;Samples;Min_cycle;Max_cycle;Signal;HPM_P1;HPM_P2
2023/07/03 00:02:12;;;;;;;73.83;20.57;;;15.20;93.30;;;;;;5094049;27;20491;-61
2023/07/03 00:04:46;;;;;;;54.00;18.53;;;15.10;93.20;;;;;;5084364;27;20488;-61
2023/07/03 00:07:14;;;;;;;61.57;18.43;;;;;;;;;;5117512;27;21003;-61
2023/07/03 00:09:41;;;;;;;61.60;19.13;;;;;;;;;;5079777;27;20550;-61
2023/07/03 00:12:09;;;;;;;79.23;21.27;;;15.30;93.40;;;;;;5111491;27;20468;-61
2023/07/03 00:14:36;;;;;;;66.20;19.50;;;15.30;93.30;;;;;;5124918;27;20476;-61
2023/07/03 00:17:03;;;;;;;75.07;20.40;;;;;;;;;;5118129;27;20484;-61
2023/07/03 00:19:32;;;;;;;70.43;20.83;;;16.50;93.40;;;;;;5097809;27;20873;-61
2023/07/03 00:22:00;;;;;;;63.80;19.07;;;;;;;;;;5079681;27;21124;-61
2023/07/03 00:24:28;;;;;;;48.90;17.37;;;15.60;93.30;;;;;;5111426;27;20491;-61
2023/07/03 00:26:56;;;;;;;69.50;20.37;;;;;;;;;;5080678;27;20508;-61
2023/07/03 00:29:23;;;;;;;72.87;21.27;;;;;;;;;;5104183;27;21208;-61
2023/07/03 00:31:50;;;;;;;51.60;18.87;;;;;;;;;;5119678;27;20724;-61
2023/07/03 00:34:18;;;;;;;53.77;18.00;;;;;;;;;;5119616;27;21041;-61
2023/07/03 00:36:47;;;;;;;48.10;17.43;;;15.30;93.70;;;;;;5106699;27;20512;-61
2023/07/03 00:39:14;;;;;;;57.20;19.20;;;;;;;;;;5116206;27;20515;-61
2023/07/03 00:41:41;;;;;;;58.23;19.63;;;;;;;;;;5127373;27;20566;-60
2023/07/03 00:44:10;;;;;;;59.27;18.67;;;15.50;93.60;;;;;;5121184;27;20468;-61
2023/07/03 00:46:39;;;;;;;59.70;19.40;;;15.50;93.40;;;;;;5123486;27;20480;-61
2023/07/03 00:49:07;;;;;;;98.37;25.70;;;15.40;93.10;;;;;;5102262;27;20567;-61
2023/07/03 00:51:34;;;;;;;62.53;18.90;;;;;;;;;;5103066;27;20495;-61
2023/07/03 00:54:02;;;;;;;72.10;20.77;;;15.60;93.50;;;;;;5116779;27;20472;-61
2023/07/03 00:56:30;;;;;;;51.07;17.17;;;;;;;;;;5094475;27;20670;-61
2023/07/03 00:58:57;;;;;;;83.60;22.53;;;;;;;;;;5100378;27;20996;-61
2023/07/03 01:01:28;;;;;;;41.60;14.03;;;15.80;93.20;;;;;;5105527;27;20483;-61
2023/07/03 01:04:01;;;;;;;71.53;18.50;;;15.80;93.00;;;;;;5103690;27;20476;-60
2023/07/03 01:06:35;;;;;;;65.93;19.23;;;15.80;93.20;;;;;;5097618;27;21093;-60
2023/07/03 01:09:03;;;;;;;84.20;23.50;;;15.80;93.10;;;;;;5094942;27;20874;-61
2023/07/03 01:11:31;;;;;;;62.73;18.57;;;;;;;;;;5107952;27;20473;-61
2023/07/03 01:14:01;;;;;;;78.20;21.47;;;15.90;93.30;;;;;;5111916;27;20526;-60
2023/07/03 01:16:30;;;;;;;53.90;17.80;;;16.00;93.20;;;;;;5116521;27;21003;-61
2023/07/03 01:18:59;;;;;;;105.93;26.13;;;16.10;93.20;;;;;;5116825;27;20472;-61
2023/07/03 01:21:35;;;;;;;44.40;16.20;;;16.20;92.90;;;;;;5095461;27;20503;-61
2023/07/03 01:24:10;;;;;;;81.97;21.93;;;16.20;93.70;;;;;;5107345;27;20480;-61
2023/07/03 01:26:40;;;;;;;48.80;17.10;;;16.30;93.40;;;;;;5109826;27;20472;-61
2023/07/03 01:29:08;;;;;;;69.60;20.83;;;16.30;93.50;;;;;;5114144;27;21053;-61
2023/07/03 01:31:36;;;;;;;69.07;20.23;;;16.40;93.30;;;;;;5114158;27;20479;-61
2023/07/03 01:34:04;;;;;;;68.40;20.37;;;20.00;95.10;;;;;;5092574;27;20477;-61
2023/07/03 01:36:31;;;;;;;44.40;16.03;;;16.50;93.40;;;;;;5085123;27;20469;-61
2023/07/03 01:39:01;;;;;;;77.80;21.43;;;16.50;93.20;;;;;;5113721;27;20504;-61
2023/07/03 01:41:30;;;;;;;63.50;18.90;;;16.60;93.20;;;;;;5116147;27;20488;-61
2023/07/03 01:43:58;;;;;;;76.50;21.57;;;16.60;93.50;;;;;;5115501;27;20480;-61
2023/07/03 01:46:25;;;;;;;49.80;17.37;;;;;;;;;;5114645;27;20483;-61
2023/07/03 01:48:52;;;;;;;66.70;20.73;;;;;;;;;;5086127;27;20479;-60
2023/07/03 01:51:26;;;;;;;52.40;17.53;;;16.60;94.70;;;;;;5094943;27;20811;-61
2023/07/03 01:54:04;;;;;;;68.23;20.37;;;16.60;93.80;;;;;;5089553;27;20476;-60
2023/07/03 01:56:35;;;;;;;62.87;19.73;;;16.60;93.80;;;;;;5111260;27;20480;-61
2023/07/03 01:59:09;;;;;;;53.73;18.40;;;16.60;94.30;;;;;;5108665;27;21127;-60
2023/07/03 02:01:43;;;;;;;54.30;17.97;;;16.70;93.70;;;;;;5112570;27;20544;-61
2023/07/03 02:04:19;;;;;;;49.80;17.97;;;16.80;93.10;;;;;;5092299;27;20544;-60
2023/07/03 02:06:47;;;;;;;43.93;17.57;;;16.90;93.00;;;;;;5078722;27;20472;-61
2023/07/03 02:09:14;;;;;;;48.90;17.93;;;16.90;94.00;;;;;;5079103;27;20524;-61
2023/07/03 02:11:41;;;;;;;43.00;15.90;;;;;;;;;;5113647;27;20476;-61
2023/07/03 02:14:11;;;;;;;61.20;18.90;;;16.90;93.40;;;;;;5113682;27;20833;-61
2023/07/03 02:16:41;;;;;;;50.37;17.67;;;17.00;93.70;;;;;;5117779;27;20491;-61
2023/07/03 02:19:09;;;;;;;66.20;19.73;;;;;;;;;;5116225;27;20483;-61
2023/07/03 02:21:36;;;;;;;63.50;19.27;;;16.90;93.30;;;;;;5115315;27;20500;-61
2023/07/03 02:24:04;;;;;;;84.80;22.73;;;;;;;;;;5095889;27;21001;-61
2023/07/03 02:26:31;;;;;;;43.93;16.20;;;;;;;;;;5106039;27;20573;-61
2023/07/03 02:28:58;;;;;;;66.93;20.57;;;;;;;;;;5117546;27;20548;-61
2023/07/03 02:31:26;;;;;;;57.53;17.97;;;16.90;93.80;;;;;;5110988;27;20483;-61
2023/07/03 02:33:53;;;;;;;65.30;20.97;;;;;;;;;;5114923;27;20491;-61
2023/07/03 02:36:24;;;;;;;53.90;15.87;;;16.90;94.00;;;;;;5112665;27;20527;-61
2023/07/03 02:38:51;;;;;;;49.60;17.53;;;;;;;;;;5086234;27;20473;-61
2023/07/03 02:41:21;;;;;;;60.10;19.63;;;;;;;;;;5067547;28;20477;-61
2023/07/03 02:43:48;;;;;;;42.00;16.57;;;;;;;;;;5109139;27;20899;-61
2023/07/03 02:46:15;;;;;;;43.17;16.70;;;;;;;;;;5092623;27;20473;-61
2023/07/03 02:48:43;;;;;;;55.60;20.00;;;17.10;93.70;;;;;;5109280;27;20483;-61
2023/07/03 02:51:10;;;;;;;51.70;18.10;;;;;;;;;;5103970;27;20484;-61
2023/07/03 02:53:37;;;;;;;42.97;16.40;;;17.30;93.50;;;;;;5081740;27;21092;-60
2023/07/03 02:56:04;;;;;;;74.37;22.30;;;17.30;93.40;;;;;;5086278;27;20477;-61
2023/07/03 02:58:31;;;;;;;64.30;19.53;;;17.40;93.20;;;;;;5106896;27;20483;-61
2023/07/03 03:00:58;;;;;;;70.93;20.37;;;;;;;;;;5107922;27;20480;-60
2023/07/03 03:03:25;;;;;;;48.70;16.80;;;;;;;;;;5115438;27;20479;-61
2023/07/03 03:05:55;;;;;;;60.10;18.37;;;17.40;93.00;;;;;;5105360;28;20506;-61
2023/07/03 03:08:22;;;;;;;47.07;17.60;;;17.40;92.80;;;;;;5080761;28;20473;-61
2023/07/03 03:10:49;;;;;;;53.30;17.10;;;;;;;;;;5082391;28;20552;-61
2023/07/03 03:13:16;;;;;;;51.43;16.60;;;;;;;;;;5099118;28;20865;-61
2023/07/03 03:15:43;;;;;;;32.57;13.87;;;;;;;;;;5096209;27;20484;-61
2023/07/03 03:18:10;;;;;;;59.93;19.60;;;;;;;;;;5075345;27;20479;-61
2023/07/03 03:20:37;;;;;;;51.40;17.73;;;17.40;92.70;;;;;;5094000;28;20488;-62
2023/07/03 03:23:05;;;;;;;48.83;19.47;;;17.40;92.80;;;;;;5069021;28;20477;-61
2023/07/03 03:25:33;;;;;;;52.93;18.13;;;;;;;;;;5076020;28;20591;-61
2023/07/03 03:28:00;;;;;;;80.07;23.20;;;;;;;;;;5093269;28;20465;-60
2023/07/03 03:30:27;;;;;;;47.10;16.73;;;17.20;93.00;;;;;;5090735;28;20484;-60
2023/07/03 03:32:54;;;;;;;57.17;19.70;;;;;;;;;;5093336;27;20485;-60
2023/07/03 03:35:21;;;;;;;45.67;16.60;;;;;;;;;;5090598;27;20572;-60
2023/07/03 03:37:48;;;;;;;51.40;17.47;;;;;;;;;;5089728;27;20495;-60
2023/07/03 03:40:16;;;;;;;53.97;20.00;;;17.20;93.20;;;;;;5097503;27;20481;-60
2023/07/03 03:42:44;;;;;;;39.83;16.30;;;;;;;;;;5075915;28;20488;-61
2023/07/03 03:45:11;;;;;;;57.83;18.03;;;;;;;;;;5091705;28;20469;-60
2023/07/03 03:47:38;;;;;;;51.43;16.60;;;17.30;93.00;;;;;;5077947;27;20485;-60
2023/07/03 03:50:05;;;;;;;73.73;21.87;;;17.30;92.80;;;;;;5087190;28;20486;-61
2023/07/03 03:52:32;;;;;;;45.40;16.50;;;17.30;92.70;;;;;;5084588;27;20916;-60
2023/07/03 03:54:59;;;;;;;97.60;23.90;;;17.20;92.50;;;;;;5090576;27;20996;-60
2023/07/03 03:57:28;;;;;;;58.57;17.20;;;17.30;92.50;;;;;;5080738;27;20477;-60
2023/07/03 03:59:55;;;;;;;70.20;21.50;;;;;;;;;;5087357;27;20993;-60
2023/07/03 04:02:22;;;;;;;63.20;18.50;;;;;;;;;;5085219;27;21341;-61
2023/07/03 04:04:49;;;;;;;47.33;16.67;;;17.10;92.70;;;;;;5086494;27;20851;-60
2023/07/03 04:07:16;;;;;;;59.73;17.90;;;;;;;;;;5114065;27;20471;-60
2023/07/03 04:09:43;;;;;;;53.17;16.80;;;;;;;;;;5092896;27;20482;-60
2023/07/03 04:12:10;;;;;;;53.80;18.23;;;17.00;93.00;;;;;;5083691;28;21060;-60
2023/07/03 04:14:38;;;;;;;46.07;17.20;;;17.10;92.90;;;;;;5082481;27;20921;-60
2023/07/03 04:17:08;;;;;;;85.73;22.10;;;;;;;;;;5088532;27;20479;-61
2023/07/03 04:19:35;;;;;;;49.83;16.40;;;17.10;92.70;;;;;;5090370;27;20962;-60
2023/07/03 04:22:02;;;;;;;81.47;21.70;;;;;;;;;;5069899;27;20472;-60
2023/07/03 04:24:29;;;;;;;53.87;16.27;;;;;;;;;;5064760;27;20919;-60
2023/07/03 04:26:58;;;;;;;74.07;21.57;;;;;;;;;;5086226;27;20488;-60
2023/07/03 04:29:26;;;;;;;48.83;15.07;;;;;;;;;;5063622;27;20962;-59
2023/07/03 04:31:54;;;;;;;57.60;17.77;;;17.10;92.80;;;;;;5078099;27;20494;-59
2023/07/03 04:34:21;;;;;;;43.80;15.50;;;;;;;;;;5108223;27;20690;-60
2023/07/03 04:36:49;;;;;;;46.60;14.47;;;17.00;92.70;;;;;;5097675;27;20496;-60
2023/07/03 04:39:16;;;;;;;52.70;15.37;;;17.00;92.80;;;;;;5094000;27;20478;-60
2023/07/03 04:41:44;;;;;;;47.23;14.33;;;;;;;;;;5091202;27;20470;-60
2023/07/03 04:44:12;;;;;;;52.63;15.43;;;;;;;;;;5096680;27;20588;-60
2023/07/03 04:46:39;;;;;;;52.23;15.70;;;;;;;;;;5096274;28;20610;-60
2023/07/03 04:49:08;;;;;;;66.30;17.83;;;17.00;93.00;;;;;;5095945;27;20654;-60
2023/07/03 04:51:35;;;;;;;50.00;14.57;;;17.00;92.60;;;;;;5092651;28;20842;-61
2023/07/03 04:54:03;;;;;;;58.70;15.67;;;18.30;93.40;;;;;;5108743;27;20480;-60
2023/07/03 04:56:33;;;;;;;51.13;14.20;;;17.00;92.30;;;;;;5088731;27;20644;-60
2023/07/03 04:59:00;;;;;;;90.53;21.30;;;;;;;;;;5081644;27;20483;-61
2023/07/03 05:01:29;;;;;;;56.63;14.73;;;;;;;;;;5091106;27;20479;-60
2023/07/03 05:03:56;;;;;;;80.83;19.90;;;;;;;;;;5087563;27;20644;-60
2023/07/03 05:06:25;;;;;;;42.30;13.20;;;17.20;92.10;;;;;;5098471;27;20492;-61
2023/07/03 05:08:52;;;;;;;68.13;16.90;;;17.30;91.90;;;;;;5092879;27;20482;-61
2023/07/03 05:11:20;;;;;;;52.67;14.23;;;;;;;;;;5102762;27;20544;-61
2023/07/03 05:13:47;;;;;;;38.77;10.53;;;;;;;;;;5085761;27;20484;-60
2023/07/03 05:16:14;;;;;;;39.80;12.60;;;17.40;91.50;;;;;;5087164;27;20582;-60
2023/07/03 05:18:41;;;;;;;48.67;13.80;;;17.50;91.30;;;;;;5113770;27;21065;-61
2023/07/03 05:21:08;;;;;;;56.20;13.43;;;;;;;;;;5074693;27;21568;-60
2023/07/03 05:23:36;;;;;;;41.83;11.33;;;17.50;90.80;;;;;;5078024;27;20827;-60
2023/07/03 05:26:04;;;;;;;60.03;14.33;;;;;;;;;;5094751;27;20480;-61
2023/07/03 05:28:31;;;;;;;43.00;11.30;;;;;;;;;;5101170;27;20488;-61
2023/07/03 05:30:59;;;;;;;69.53;14.67;;;17.60;90.20;;;;;;5107507;27;21229;-61
2023/07/03 05:33:27;;;;;;;42.13;11.67;;;17.60;89.00;;;;;;5085338;28;21006;-61
2023/07/03 05:35:55;;;;;;;53.97;13.70;;;17.70;88.40;;;;;;5112542;27;20471;-61
2023/07/03 05:38:22;;;;;;;65.87;12.10;;;;;;;;;;5112499;27;20468;-61
2023/07/03 05:40:50;;;;;;;48.73;13.10;;;17.80;87.70;;;;;;5116896;27;20981;-60
2023/07/03 05:43:17;;;;;;;49.90;10.63;;;;;;;;;;5118165;27;20472;-61
2023/07/03 05:45:45;;;;;;;30.73;8.77;;;18.00;88.60;;;;;;5103171;27;20473;-61
2023/07/03 05:48:12;;;;;;;44.00;11.57;;;;;;;;;;5083187;27;20468;-61
2023/07/03 05:50:39;;;;;;;54.73;13.30;;;18.00;87.50;;;;;;5094867;27;20472;-61
2023/07/03 05:53:06;;;;;;;61.67;14.90;;;;;;;;;;5074793;27;21280;-61
2023/07/03 05:55:33;;;;;;;38.53;10.70;;;;;;;;;;5085710;27;20465;-61
2023/07/03 05:58:02;;;;;;;80.23;17.97;;;18.00;86.50;;;;;;5101981;27;20468;-61
2023/07/03 06:00:30;;;;;;;54.03;12.77;;;18.00;87.10;;;;;;5100072;27;21049;-60
2023/07/03 06:02:59;;;;;;;77.73;18.23;;;18.10;87.50;;;;;;5074963;27;20468;-60
2023/07/03 06:05:26;;;;;;;49.83;12.47;;;;;;;;;;5063517;28;20474;-61
2023/07/03 06:07:53;;;;;;;51.07;12.93;;;;;;;;;;5077883;27;20512;-60
2023/07/03 06:10:21;;;;;;;43.20;10.83;;;;;;;;;;5085904;27;20476;-61
2023/07/03 06:12:48;;;;;;;35.17;9.57;;;;;;;;;;5082089;27;20476;-60
2023/07/03 06:15:16;;;;;;;40.90;10.70;;;18.20;86.20;;;;;;5084978;27;20477;-61
2023/07/03 06:17:44;;;;;;;41.50;10.57;;;;;;;;;;5091070;27;20825;-60
2023/07/03 06:20:11;;;;;;;36.97;9.63;;;;;;;;;;5066104;28;20471;-60
2023/07/03 06:22:38;;;;;;;49.00;10.30;;;18.30;86.20;;;;;;5061259;28;21115;-61
2023/07/03 06:25:07;;;;;;;60.50;14.13;;;18.40;85.20;;;;;;5075128;28;20482;-60
2023/07/03 06:27:34;;;;;;;44.50;10.10;;;;;;;;;;5076164;28;20733;-60
2023/07/03 06:30:01;;;;;;;70.47;14.47;;;;;;;;;;5097498;27;20465;-61
2023/07/03 06:32:29;;;;;;;44.47;11.70;;;18.50;85.20;;;;;;5099118;27;20977;-60
2023/07/03 06:34:57;;;;;;;62.70;15.17;;;18.60;85.20;;;;;;5082612;27;21172;-61
2023/07/03 06:37:24;;;;;;;38.10;8.80;;;;;;;;;;5094425;27;20549;-60
2023/07/03 06:39:51;;;;;;;41.33;10.97;;;;;;;;;;5099980;27;20468;-60
2023/07/03 06:42:18;;;;;;;42.40;10.37;;;;;;;;;;5090836;27;20465;-61
2023/07/03 06:44:45;;;;;;;34.87;9.20;;;;;;;;;;5112994;27;20485;-61
2023/07/03 06:47:12;;;;;;;35.23;8.30;;;;;;;;;;5110475;27;20477;-61
2023/07/03 06:49:40;;;;;;;53.37;11.70;;;18.60;84.10;;;;;;5099286;27;20489;-60
2023/07/03 06:52:09;;;;;;;61.93;13.57;;;18.60;84.60;;;;;;5097833;27;20487;-61
2023/07/03 06:54:36;;;;;;;42.20;11.13;;;18.70;84.90;;;;;;5094346;27;20695;-61
2023/07/03 06:57:04;;;;;;;73.90;16.83;;;;;;;;;;5079006;27;20509;-61
2023/07/03 06:59:31;;;;;;;49.10;12.00;;;;;;;;;;5081135;27;20733;-61
2023/07/03 07:01:58;;;;;;;92.43;19.77;;;;;;;;;;5107954;27;20499;-61
2023/07/03 07:04:27;;;;;;;43.50;9.70;;;;;;;;;;5076230;28;20610;-61
2023/07/03 07:06:55;;;;;;;46.80;12.30;;;18.80;84.90;;;;;;5105058;27;20479;-61
2023/07/03 07:09:22;;;;;;;39.63;10.90;;;18.90;85.70;;;;;;5110602;27;20496;-61
2023/07/03 07:11:49;;;;;;;32.60;9.87;;;;;;;;;;5114391;27;20487;-60
2023/07/03 07:14:17;;;;;;;45.70;11.93;;;;;;;;;;5095295;27;20473;-61
2023/07/03 07:16:44;;;;;;;30.40;10.47;;;19.10;86.20;;;;;;5090105;27;21169;-62
2023/07/03 07:19:13;;;;;;;43.97;10.20;;;19.10;84.90;;;;;;5111611;27;20490;-62
2023/07/03 07:21:42;;;;;;;44.63;11.30;;;19.30;85.00;;;;;;5110815;28;20839;-61
2023/07/03 07:24:20;;;;;;;55.13;13.07;;;19.40;84.00;;;;;;5115984;27;20546;-61
2023/07/03 07:26:50;;;;;;;23.57;6.93;;;19.50;84.80;;;;;;5111961;27;20480;-61
2023/07/03 07:29:17;;;;;;;38.83;11.33;;;;;;;;;;5107739;27;21427;-61
2023/07/03 07:31:44;;;;;;;30.80;8.97;;;;;;;;;;5107930;27;20487;-61
2023/07/03 07:34:12;;;;;;;50.77;11.83;;;19.30;85.40;;;;;;5118932;27;20471;-61
2023/07/03 07:36:40;;;;;;;34.10;9.20;;;19.40;85.90;;;;;;5098216;27;20488;-61
2023/07/03 07:39:08;;;;;;;59.33;12.30;;;19.10;86.30;;;;;;5069070;27;20481;-61
2023/07/03 07:41:37;;;;;;;36.97;9.77;;;19.30;86.60;;;;;;5106530;27;20478;-62
2023/07/03 07:44:06;;;;;;;63.17;14.70;;;19.40;87.00;;;;;;5108800;27;21462;-61
2023/07/03 07:46:35;;;;;;;33.37;9.83;;;19.50;86.20;;;;;;5108239;27;20550;-61
2023/07/03 07:49:02;;;;;;;61.07;14.23;;;19.30;86.10;;;;;;5110104;27;20475;-61
2023/07/03 07:51:30;;;;;;;45.77;11.87;;;19.20;87.90;;;;;;5114099;27;20485;-61
2023/07/03 07:53:58;;;;;;;83.70;17.63;;;19.10;89.10;;;;;;5117904;27;20479;-61
2023/07/03 07:56:26;;;;;;;36.70;11.27;;;19.10;89.20;;;;;;5091589;27;20684;-61
2023/07/03 07:58:55;;;;;;;62.37;15.30;;;19.00;89.00;;;;;;5107158;27;20491;-61
2023/07/03 08:01:22;;;;;;;26.67;7.63;;;19.10;89.50;;;;;;5100867;27;20726;-61
2023/07/03 08:03:49;;;;;;;29.63;9.50;;;19.20;88.90;;;;;;5114550;27;20480;-62
2023/07/03 08:06:17;;;;;;;43.40;10.83;;;19.30;88.50;;;;;;5114736;27;20485;-62
2023/07/03 08:08:44;;;;;;;27.77;7.90;;;19.40;88.70;;;;;;5112481;27;20483;-61
2023/07/03 08:11:11;;;;;;;54.37;12.30;;;19.50;88.70;;;;;;5093044;27;20512;-61
2023/07/03 08:13:40;;;;;;;27.87;8.27;;;;;;;;;;5095251;27;20495;-62
2023/07/03 08:16:09;;;;;;;51.37;13.03;;;19.60;89.10;;;;;;5116775;27;20892;-62
2023/07/03 08:18:36;;;;;;;57.27;13.30;;;19.80;89.40;;;;;;5117583;27;20480;-61
2023/07/03 08:21:03;;;;;;;59.80;14.07;;;20.20;90.60;;;;;;5096657;27;20575;-61
2023/07/03 08:23:31;;;;;;;33.00;9.30;;;20.20;88.60;;;;;;5101092;27;20476;-61
2023/07/03 08:26:00;;;;;;;51.10;12.67;;;20.40;88.90;;;;;;5092654;27;20907;-61
2023/07/03 08:28:29;;;;;;;38.93;9.67;;;20.50;89.50;;;;;;5084250;27;20483;-61
2023/07/03 08:30:57;;;;;;;30.40;9.53;;;20.60;89.50;;;;;;5103739;27;20447;-61
2023/07/03 08:33:26;;;;;;;34.23;9.70;;;20.60;87.30;;;;;;5120053;27;21031;-61
2023/07/03 08:35:53;;;;;;;48.00;11.07;;;20.60;86.70;;;;;;5085905;27;20450;-62
2023/07/03 08:38:20;;;;;;;37.83;10.33;;;20.40;86.60;;;;;;5104071;27;20648;-61
2023/07/03 08:40:48;;;;;;;31.27;9.20;;;;;;;;;;5109668;27;20841;-61
2023/07/03 08:43:20;;;;;;;32.53;9.27;;;20.50;87.30;;;;;;5082627;27;20472;-61
2023/07/03 08:45:49;;;;;;;32.03;8.87;;;20.40;87.60;;;;;;5115045;27;20486;-61
2023/07/03 08:48:18;;;;;;;43.97;10.67;;;;;;;;;;5113770;27;20446;-61
2023/07/03 08:50:50;;;;;;;39.63;10.97;;;20.10;88.40;;;;;;5111298;27;20972;-61
2023/07/03 08:53:20;;;;;;;32.10;8.70;;;20.10;87.40;;;;;;5083497;27;20534;-62
2023/07/03 08:55:53;;;;;;;20.53;6.70;;;20.30;89.00;;;;;;5092183;27;20475;-61
2023/07/03 08:58:20;;;;;;;38.47;8.90;;;20.40;88.90;;;;;;5071185;27;20485;-61
2023/07/03 09:00:56;;;;;;;34.47;9.33;;;20.50;87.40;;;;;;5102168;27;20484;-62
2023/07/03 09:03:31;;;;;;;39.40;9.60;;;20.30;87.10;;;;;;5109161;27;20477;-61
2023/07/03 09:06:08;;;;;;;47.83;12.20;;;20.10;87.50;;;;;;5110123;27;20492;-62
2023/07/03 09:08:44;;;;;;;42.87;11.53;;;20.20;89.30;;;;;;5088693;27;20833;-61
2023/07/03 09:11:11;;;;;;;37.83;9.00;;;20.10;86.90;;;;;;5103110;27;20473;-62
2023/07/03 09:13:42;;;;;;;24.83;7.97;;;20.00;87.90;;;;;;5112459;27;20483;-61
2023/07/03 09:16:14;;;;;;;49.30;11.40;;;19.90;87.50;;;;;;5113888;27;20472;-60
2023/07/03 09:18:46;;;;;;;26.93;7.73;;;20.00;86.50;;;;;;5115153;27;20469;-61
2023/07/03 09:21:14;;;;;;;34.10;8.30;;;20.20;86.60;;;;;;5085836;27;21087;-62
2023/07/03 09:23:47;;;;;;;44.90;9.20;;;20.20;88.20;;;;;;5086833;27;20481;-61
2023/07/03 09:26:21;;;;;;;38.70;9.90;;;20.10;87.10;;;;;;5092001;27;20959;-60
2023/07/03 09:28:49;;;;;;;23.70;7.37;;;20.50;87.60;;;;;;5107533;27;20476;-61
2023/07/03 09:31:16;;;;;;;30.73;7.37;;;20.90;89.10;;;;;;5110778;27;21536;-62
2023/07/03 09:33:43;;;;;;;27.23;9.10;;;21.20;86.40;;;;;;5085396;27;20480;-61
2023/07/03 09:36:25;;;;;;;37.00;9.50;;;21.60;86.00;;;;;;5107562;27;20484;-61
2023/07/03 09:38:52;;;;;;;38.50;8.17;;;21.70;84.90;;;;;;5109534;27;20481;-61
2023/07/03 09:41:27;;;;;;;24.47;6.93;;;22.10;83.70;;;;;;5111229;27;20668;-62
2023/07/03 09:43:55;;;;;;;30.10;8.47;;;22.20;83.80;;;;;;5094821;27;20528;-62
2023/07/03 09:46:22;;;;;;;29.03;7.80;;;22.10;83.60;;;;;;5088815;27;20845;-61
2023/07/03 09:48:49;;;;;;;26.77;7.13;;;21.90;82.20;;;;;;5095456;27;20482;-62
2023/07/03 09:51:28;;;;;;;50.70;11.40;;;22.10;81.70;;;;;;5091787;27;20584;-62
2023/07/03 09:53:57;;;;;;;46.13;11.47;;;21.90;81.70;;;;;;5059988;28;21306;-62
2023/07/03 09:56:27;;;;;;;26.27;6.67;;;22.00;82.30;;;;;;5082011;27;20470;-62
2023/07/03 09:58:59;;;;;;;43.03;10.50;;;21.90;82.50;;;;;;5091849;27;20516;-62
2023/07/03 10:01:29;;;;;;;28.40;7.27;;;21.80;81.20;;;;;;5072633;27;20459;-62
2023/07/03 10:04:04;;;;;;;48.73;11.53;;;21.40;81.20;;;;;;5088970;27;20492;-61
2023/07/03 10:06:33;;;;;;;36.07;9.10;;;21.60;82.70;;;;;;5093633;27;20472;-61
2023/07/03 10:09:04;;;;;;;75.07;14.90;;;21.70;81.80;;;;;;5098222;27;20992;-60
2023/07/03 10:11:40;;;;;;;25.57;6.50;;;21.70;82.20;;;;;;5101742;27;20518;-61
2023/07/03 10:14:12;;;;;;;59.13;12.60;;;21.60;81.40;;;;;;5107059;27;20881;-61
2023/07/03 10:16:40;;;;;;;35.97;7.60;;;21.40;81.20;;;;;;5113522;27;20475;-60
2023/07/03 10:19:09;;;;;;;52.23;11.70;;;21.20;81.30;;;;;;5113465;27;21045;-61
2023/07/03 10:21:38;;;;;;;32.13;7.10;;;21.10;82.60;;;;;;5116862;27;21086;-61
2023/07/03 10:24:06;;;;;;;55.67;11.70;;;21.00;82.70;;;;;;5112917;27;20472;-60
2023/07/03 10:26:39;;;;;;;48.17;10.17;;;20.90;82.40;;;;;;5116827;27;20478;-61
2023/07/03 10:29:13;;;;;;;63.30;12.90;;;20.70;83.70;;;;;;5101962;27;20489;-61
2023/07/03 10:31:47;;;;;;;35.40;9.50;;;20.60;83.60;;;;;;5074046;27;20478;-60
2023/07/03 10:34:19;;;;;;;46.27;10.30;;;20.80;84.40;;;;;;5082260;27;20527;-61
2023/07/03 10:36:49;;;;;;;31.27;7.90;;;20.90;84.40;;;;;;5085835;27;20962;-60
2023/07/03 10:39:21;;;;;;;35.20;8.27;;;21.00;83.40;;;;;;5096674;27;21437;-60
2023/07/03 10:41:52;;;;;;;40.47;6.67;;;21.00;84.10;;;;;;5115879;27;20476;-62
2023/07/03 10:44:22;;;;;;;53.20;10.70;;;21.10;83.50;;;;;;5108239;27;20445;-61
2023/07/03 10:47:00;;;;;;;25.00;6.97;;;21.30;84.60;;;;;;5088899;27;20484;-61
2023/07/03 10:49:30;;;;;;;51.77;10.77;;;21.30;83.60;;;;;;5099158;27;20971;-61
2023/07/03 10:52:10;;;;;;;135.50;22.23;;;21.30;83.60;;;;;;5098019;27;20486;-61
2023/07/03 10:54:44;;;;;;;40.97;8.80;;;22.20;84.20;;;;;;5104842;27;20494;-61
2023/07/03 10:57:16;;;;;;;56.07;11.30;;;21.20;84.20;;;;;;5100605;27;20484;-62
2023/07/03 10:59:49;;;;;;;40.23;8.97;;;21.10;84.30;;;;;;5096583;27;20710;-62
2023/07/03 11:02:27;;;;;;;57.10;12.47;;;21.10;84.20;;;;;;5088808;27;20474;-61
2023/07/03 11:05:02;;;;;;;35.67;9.67;;;21.10;84.60;;;;;;5104004;27;20481;-61
2023/07/03 11:07:33;;;;;;;44.70;10.93;;;;;;;;;;5104256;27;20483;-62
2023/07/03 11:10:04;;;;;;;60.23;13.63;;;;;;;;;;5105507;27;20773;-61
2023/07/03 11:12:36;;;;;;;38.13;9.10;;;21.20;86.40;;;;;;5114207;27;20474;-61
2023/07/03 11:15:21;;;;;;;66.90;13.87;;;21.10;87.10;;;;;;5110694;27;20473;-61
2023/07/03 11:17:58;;;;;;;27.77;7.40;;;21.20;86.40;;;;;;5110610;27;20484;-61
2023/07/03 11:20:30;;;;;;;45.93;10.70;;;21.10;85.70;;;;;;5106821;27;20482;-62
2023/07/03 11:23:06;;;;;;;74.83;15.73;;;21.30;85.10;;;;;;5107258;27;20488;-63
2023/07/03 11:25:39;;;;;;;41.00;9.00;;;21.20;85.20;;;;;;5092468;27;21861;-61
2023/07/03 11:28:14;;;;;;;70.07;15.30;;;21.20;86.10;;;;;;5117946;27;20487;-61
2023/07/03 11:30:43;;;;;;;31.77;8.70;;;21.20;86.80;;;;;;5074648;27;20481;-62
2023/07/03 11:33:10;;;;;;;29.33;7.73;;;21.20;85.60;;;;;;5090950;27;20968;-61
2023/07/03 11:35:37;;;;;;;37.77;9.10;;;21.10;86.40;;;;;;5109443;27;20479;-62
2023/07/03 11:38:08;;;;;;;52.37;13.03;;;21.10;86.30;;;;;;5103998;27;20503;-61
2023/07/03 11:40:38;;;;;;;44.33;11.70;;;21.00;86.90;;;;;;5117657;27;20473;-62
2023/07/03 11:43:29;;;;;;;59.47;14.20;;;21.30;86.90;;;;;;5104663;27;20501;-62
2023/07/03 11:46:08;;;;;;;46.00;11.90;;;21.40;87.00;;;;;;5108810;27;20468;-62
2023/07/03 11:48:43;;;;;;;33.87;10.17;;;21.50;87.20;;;;;;5097501;27;20539;-62
2023/07/03 11:51:12;;;;;;;37.07;9.50;;;21.70;87.20;;;;;;5108884;27;20471;-60
2023/07/03 11:53:44;;;;;;;21.93;7.70;;;21.80;86.90;;;;;;5089386;27;21053;-61
2023/07/03 11:56:15;;;;;;;28.57;8.80;;;21.90;86.50;;;;;;5116826;27;20578;-60
2023/07/03 11:58:43;;;;;;;23.43;7.17;;;22.20;87.80;;;;;;5086401;27;20849;-61
2023/07/03 12:01:30;;;;;;;26.43;8.13;;;22.30;87.50;;;;;;5109132;27;20486;-62
2023/07/03 12:03:58;;;;;;;30.50;9.23;;;22.50;86.30;;;;;;5086648;27;20582;-61
2023/07/03 12:06:46;;;;;;;31.73;9.50;;;23.10;86.60;;;;;;5082379;27;20474;-61
2023/07/03 12:09:32;;;;;;;35.53;11.00;;;22.50;86.20;;;;;;5122248;27;20499;-62
2023/07/03 12:12:18;;;;;;;53.47;14.43;;;22.70;87.10;;;;;;5092513;27;20449;-62
2023/07/03 12:14:53;;;;;;;15.90;6.43;;;22.20;84.90;;;;;;5111495;27;20495;-62
2023/07/03 12:17:23;;;;;;;20.67;7.10;;;23.40;87.00;;;;;;5123521;27;20489;-61
2023/07/03 12:19:54;;;;;;;27.07;9.27;;;22.00;85.40;;;;;;5092277;27;20466;-61
2023/07/03 12:22:24;;;;;;;24.93;8.47;;;21.60;87.00;;;;;;5117330;27;20490;-62
2023/07/03 12:25:02;;;;;;;31.13;8.23;;;21.40;87.30;;;;;;5113915;27;20483;-61
2023/07/03 12:27:29;;;;;;;33.83;9.17;;;21.50;87.10;;;;;;5114079;27;20486;-62
2023/07/03 12:29:56;;;;;;;38.93;12.10;;;21.60;88.60;;;;;;5082096;27;20925;-61
2023/07/03 12:32:28;;;;;;;25.50;8.40;;;21.80;89.80;;;;;;5125482;27;20475;-62
2023/07/03 12:35:09;;;;;;;43.37;12.37;;;21.90;91.00;;;;;;5115176;27;20476;-62
2023/07/03 12:37:36;;;;;;;28.27;8.20;;;22.30;90.10;;;;;;5106377;27;20478;-62
2023/07/03 12:40:06;;;;;;;48.97;12.57;;;22.50;89.10;;;;;;5126227;27;20478;-62
2023/07/03 12:42:32;;;;;;;31.20;8.50;;;22.90;89.00;;;;;;5120654;27;20493;-62
2023/07/03 12:45:13;;;;;;;49.50;13.17;;;23.00;87.20;;;;;;5116330;27;20810;-63
2023/07/03 12:47:40;;;;;;;31.03;9.70;;;23.10;86.50;;;;;;5078842;27;20918;-63
2023/07/03 12:50:13;;;;;;;35.63;10.20;;;23.10;86.60;;;;;;5121184;27;20504;-62
2023/07/03 12:52:39;;;;;;;30.17;9.00;;;23.20;87.00;;;;;;5093416;27;20881;-62
2023/07/03 12:55:09;;;;;;;62.33;14.63;;;23.60;86.40;;;;;;5117458;27;20470;-62
2023/07/03 12:57:38;;;;;;;24.93;8.30;;;23.70;86.30;;;;;;5094294;27;20572;-61
2023/07/03 13:00:09;;;;;;;58.83;14.90;;;23.70;86.80;;;;;;5097926;27;20890;-62
2023/07/03 13:02:37;;;;;;;26.10;8.50;;;23.70;87.10;;;;;;5059560;27;20653;-62
2023/07/03 13:05:07;;;;;;;47.00;12.40;;;23.70;86.00;;;;;;5094929;27;20481;-62
2023/07/03 13:07:34;;;;;;;25.27;8.07;;;23.80;85.30;;;;;;5080655;27;20476;-62
2023/07/03 13:10:11;;;;;;;45.20;12.63;;;23.90;85.90;;;;;;5106112;27;20483;-62